Time;durP1;ratioP1;P1;durP2;ratioP2;P2;SDS_P1;SDS_P2;PMS_P1;PMS_P2;Temp;Humidity;BMP_temperature;BMP_pressure;BME280_temperature;BME280_humidity;BME280_pressure;Samples;Min_cycle;Max_cycle;Signal;HPM_P1;HPM_P2
2023/07/18 00:00:17;;;;;;;5.05;1.63;;;;;;;;;;5027804;28;20495;-76
2023/07/18 00:03:03;;;;;;;4.80;2.40;;;;;;;;;;5034465;28;20108;-68
2023/07/18 00:05:48;;;;;;;6.03;2.45;;;;;;;;;;5025912;28;20108;-71
2023/07/18 00:08:34;;;;;;;4.60;2.30;;;;;;;;;;5029348;28;20345;-71
2023/07/18 00:11:22;;;;;;;3.08;1.90;;;;;;;;;;5044705;28;20048;-71
2023/07/18 00:14:07;;;;;;;4.65;2.13;;;;;;;;;;5035203;28;20076;-71
2023/07/18 00:16:52;;;;;;;4.20;2.28;;;;;;;;;;5022724;28;20057;-71
2023/07/18 00:19:39;;;;;;;4.72;1.75;;;;;;;;;;5025268;28;20061;-70
2023/07/18 00:22:25;;;;;;;4.65;2.17;;;;;;;;;;5023198;28;20037;-72
2023/07/18 00:25:10;;;;;;;3.05;1.70;;;;;;;;;;5010360;28;20056;-75
2023/07/18 00:27:55;;;;;;;7.45;2.25;;;;;;;;;;5017770;28;20040;-75
2023/07/18 00:30:40;;;;;;;4.63;1.95;;;;;;;;;;5029553;28;20029;-75
2023/07/18 00:33:26;;;;;;;2.63;1.73;;;;;;;;;;5033273;28;20036;-74
2023/07/18 00:36:11;;;;;;;4.82;1.83;;;;;;;;;;5019726;28;20419;-76
2023/07/18 00:38:57;;;;;;;5.22;1.80;;;;;;;;;;5029133;28;20036;-71
2023/07/18 00:41:42;;;;;;;4.60;2.08;;;;;;;;;;5039335;28;20055;-69
2023/07/18 00:44:28;;;;;;;6.38;2.05;;;;;;;;;;5018576;28;20242;-70
2023/07/18 00:47:13;;;;;;;5.07;1.98;;;;;;;;;;5030239;28;20021;-71
2023/07/18 00:49:58;;;;;;;2.25;1.63;;;;;;;;;;5028844;28;20064;-71
2023/07/18 00:52:51;;;;;;;6.70;1.90;;;;;;;;;;5034327;28;20064;-71
2023/07/18 00:55:37;;;;;;;3.47;1.83;;;;;;;;;;5028028;28;20025;-70
2023/07/18 00:58:22;;;;;;;3.65;1.60;;;;;;;;;;5025808;28;20060;-69
2023/07/18 01:01:08;;;;;;;4.82;1.77;;;;;;;;;;5027666;28;20704;-67
2023/07/18 01:03:53;;;;;;;3.67;1.48;;;;;;;;;;5027404;28;20032;-68
2023/07/18 01:06:38;;;;;;;5.65;1.80;;;;;;;;;;5038332;28;20030;-66
2023/07/18 01:09:24;;;;;;;4.65;1.48;;;;;;;;;;5026589;28;20025;-67
2023/07/18 01:12:10;;;;;;;4.55;1.67;;;;;;;;;;5032202;28;20034;-66
2023/07/18 01:14:55;;;;;;;3.53;1.70;;;;;;;;;;5026195;28;20546;-69
2023/07/18 01:17:42;;;;;;;3.55;1.85;;;;;;;;;;5023220;28;20134;-71
2023/07/18 01:20:27;;;;;;;6.95;1.65;;;;;;;;;;5031307;28;20065;-76
2023/07/18 01:23:13;;;;;;;3.97;1.95;;;;;;;;;;5029447;28;20121;-73
2023/07/18 01:25:59;;;;;;;4.55;2.05;;;;;;;;;;5034130;28;20052;-72
2023/07/18 01:28:44;;;;;;;5.15;2.10;;;;;;;;;;5023814;28;20025;-73
2023/07/18 01:31:30;;;;;;;5.50;1.88;;;;;;;;;;5023243;28;20065;-73
2023/07/18 01:34:16;;;;;;;4.05;1.70;;;;;;;;;;5036739;28;20105;-69
2023/07/18 01:37:01;;;;;;;3.50;1.95;;;;;;;;;;5021777;28;20400;-72
2023/07/18 01:39:47;;;;;;;7.32;2.22;;;;;;;;;;5019444;28;20025;-73
2023/07/18 01:42:32;;;;;;;2.90;1.80;;;;;;;;;;5037781;28;20041;-73
2023/07/18 01:45:19;;;;;;;4.35;1.73;;;;;;;;;;5034977;28;20056;-72
2023/07/18 01:48:04;;;;;;;2.10;1.30;;;;;;;;;;5014924;28;20076;-74
2023/07/18 01:50:50;;;;;;;3.65;1.60;;;;;;;;;;5028479;28;20025;-73
2023/07/18 01:53:35;;;;;;;4.25;2.10;;;;;;;;;;5028801;28;20093;-65
2023/07/18 01:56:20;;;;;;;6.28;1.92;;;;;;;;;;5037141;28;20033;-69
2023/07/18 01:59:05;;;;;;;2.92;1.95;;;;;;;;;;5026780;28;20377;-70
2023/07/18 02:01:51;;;;;;;4.07;2.00;;;;;;;;;;5028387;28;20105;-68
2023/07/18 02:04:36;;;;;;;4.07;1.60;;;;;;;;;;5037034;28;20033;-69
2023/07/18 02:07:22;;;;;;;2.25;1.58;;;;;;;;;;5028595;28;20026;-68
2023/07/18 02:10:07;;;;;;;6.90;2.00;;;;;;;;;;5027939;28;20041;-68
2023/07/18 02:12:53;;;;;;;3.25;1.83;;;;;;;;;;5027798;28;20484;-70
2023/07/18 02:15:38;;;;;;;4.38;2.08;;;;;;;;;;5027261;28;20452;-67
2023/07/18 02:18:24;;;;;;;5.75;1.70;;;;;;;;;;5031073;28;20029;-66
2023/07/18 02:21:09;;;;;;;4.80;2.00;;;;;;;;;;5042384;28;20067;-66
2023/07/18 02:23:54;;;;;;;3.22;1.88;;;;;;;;;;5025929;28;20064;-68
2023/07/18 02:26:40;;;;;;;6.90;2.00;;;;;;;;;;5030086;28;20072;-68
2023/07/18 02:29:25;;;;;;;3.22;1.80;;;;;;;;;;5031605;28;20057;-67
2023/07/18 02:32:10;;;;;;;2.70;1.80;;;;;;;;;;5015889;28;20111;-68
2023/07/18 02:34:56;;;;;;;3.05;1.60;;;;;;;;;;5036478;28;20575;-68
2023/07/18 02:37:41;;;;;;;3.28;1.60;;;;;;;;;;5028176;28;20459;-68
2023/07/18 02:40:26;;;;;;;5.22;2.00;;;;;;;;;;5031537;28;20037;-68
2023/07/18 02:43:12;;;;;;;5.32;1.45;;;;;;;;;;5031966;28;20408;-69
2023/07/18 02:45:57;;;;;;;3.03;1.40;;;;;;;;;;5036891;28;20424;-69
2023/07/18 02:48:42;;;;;;;3.33;1.95;;;;;;;;;;5037924;28;20060;-73
2023/07/18 02:51:27;;;;;;;2.90;1.67;;;;;;;;;;5011408;28;20042;-70
2023/07/18 02:54:13;;;;;;;2.78;1.63;;;;;;;;;;5028810;28;20040;-71
2023/07/18 02:56:58;;;;;;;4.82;2.60;;;;;;;;;;5031341;28;20036;-70
2023/07/18 02:59:44;;;;;;;3.13;1.30;;;;;;;;;;5017973;28;20030;-73
2023/07/18 03:02:30;;;;;;;4.57;1.70;;;;;;;;;;5031054;28;20017;-70
2023/07/18 03:05:16;;;;;;;2.63;1.55;;;;;;;;;;5030483;28;20033;-72
2023/07/18 03:08:03;;;;;;;3.42;1.63;;;;;;;;;;5031045;28;20274;-78
2023/07/18 03:10:48;;;;;;;2.60;1.38;;;;;;;;;;5030679;28;20117;-69
2023/07/18 03:13:33;;;;;;;8.15;1.77;;;;;;;;;;5031412;28;20059;-70
2023/07/18 03:16:18;;;;;;;3.33;1.70;;;;;;;;;;5034886;28;20121;-68
2023/07/18 03:19:08;;;;;;;4.72;2.05;;;;;;;;;;5031235;28;20064;-69
2023/07/18 03:21:53;;;;;;;3.63;1.70;;;;;;;;;;5013530;28;20036;-70
2023/07/18 03:24:39;;;;;;;2.90;2.00;;;;;;;;;;5028988;28;20477;-75
2023/07/18 03:27:24;;;;;;;3.78;2.10;;;;;;;;;;5038608;28;20091;-73
2023/07/18 03:30:12;;;;;;;6.25;1.95;;;;;;;;;;5031450;28;20079;-72
2023/07/18 03:32:57;;;;;;;3.45;1.95;;;;;;;;;;5030657;28;20029;-73
2023/07/18 03:35:42;;;;;;;4.20;1.63;;;;;;;;;;5030168;28;20400;-72
2023/07/18 03:38:28;;;;;;;2.22;1.48;;;;;;;;;;5015449;28;20041;-71
2023/07/18 03:41:14;;;;;;;3.55;1.40;;;;;;;;;;5029868;28;20060;-71
2023/07/18 03:44:00;;;;;;;4.43;1.98;;;;;;;;;;5030160;28;20052;-64
2023/07/18 03:46:45;;;;;;;4.35;1.83;;;;;;;;;;5033132;28;20021;-73
2023/07/18 03:49:30;;;;;;;5.53;1.85;;;;;;;;;;5017314;28;20112;-73
2023/07/18 03:52:15;;;;;;;2.55;1.55;;;;;;;;;;5025732;28;20108;-72
2023/07/18 03:55:03;;;;;;;4.70;1.90;;;;;;;;;;5020246;28;20029;-72
2023/07/18 03:57:48;;;;;;;3.63;2.30;;;;;;;;;;5033619;28;20067;-73
2023/07/18 04:00:33;;;;;;;4.32;1.83;;;;;;;;;;5009649;28;20519;-74
2023/07/18 04:03:18;;;;;;;5.97;2.05;;;;;;;;;;5018873;28;20052;-66
2023/07/18 04:06:03;;;;;;;2.80;1.90;;;;;;;;;;5015780;28;20022;-72
2023/07/18 04:08:49;;;;;;;4.32;1.70;;;;;;;;;;5018848;28;20057;-72
2023/07/18 04:11:34;;;;;;;5.57;1.55;;;;;;;;;;5029551;28;20152;-73
2023/07/18 04:14:19;;;;;;;5.60;1.90;;;;;;;;;;5028470;28;20029;-71
2023/07/18 04:17:04;;;;;;;3.20;1.45;;;;;;;;;;5029313;28;20378;-73
2023/07/18 04:19:51;;;;;;;3.60;2.08;;;;;;;;;;5029643;28;20037;-75
2023/07/18 04:22:37;;;;;;;2.28;1.48;;;;;;;;;;5026479;28;20550;-66
2023/07/18 04:25:23;;;;;;;3.15;1.55;;;;;;;;;;5017177;28;20044;-65
2023/07/18 04:28:08;;;;;;;2.63;1.42;;;;;;;;;;5029624;28;20228;-65
2023/07/18 04:30:54;;;;;;;2.88;1.77;;;;;;;;;;5029087;28;20484;-66
2023/07/18 04:33:42;;;;;;;5.13;1.73;;;;;;;;;;5029584;28;20062;-65
2023/07/18 04:36:27;;;;;;;4.60;1.80;;;;;;;;;;5028360;28;20087;-66
2023/07/18 04:39:12;;;;;;;3.47;1.40;;;;;;;;;;5018078;28;20045;-69
2023/07/18 04:41:57;;;;;;;5.45;1.85;;;;;;;;;;5028975;28;20049;-71
2023/07/18 04:44:43;;;;;;;5.60;1.70;;;;;;;;;;5028184;28;20033;-70
2023/07/18 04:47:28;;;;;;;3.13;1.85;;;;;;;;;;5029172;28;20029;-71
2023/07/18 04:50:13;;;;;;;4.63;1.75;;;;;;;;;;5028726;28;20035;-72
2023/07/18 04:52:58;;;;;;;4.30;1.80;;;;;;;;;;5016960;28;20028;-71
2023/07/18 04:55:44;;;;;;;5.63;1.73;;;;;;;;;;5032431;28;20036;-71
2023/07/18 04:58:29;;;;;;;4.03;2.38;;;;;;;;;;5029324;28;20354;-67
2023/07/18 05:01:14;;;;;;;6.20;1.90;;;;;;;;;;5028502;28;20079;-72
2023/07/18 05:04:00;;;;;;;4.38;1.70;;;;;;;;;;5027604;28;20381;-72
2023/07/18 05:06:45;;;;;;;4.90;1.88;;;;;;;;;;5029884;28;20102;-71
2023/07/18 05:09:31;;;;;;;4.78;1.80;;;;;;;;;;5036885;28;20175;-71
2023/07/18 05:12:16;;;;;;;3.88;1.75;;;;;;;;;;5025405;28;20072;-71
2023/07/18 05:15:02;;;;;;;5.32;1.63;;;;;;;;;;5032017;28;20040;-69
2023/07/18 05:17:47;;;;;;;4.07;1.70;;;;;;;;;;5024483;28;20022;-75
2023/07/18 05:20:33;;;;;;;6.28;1.77;;;;;;;;;;5026572;28;20037;-75
2023/07/18 05:23:18;;;;;;;5.47;1.90;;;;;;;;;;5024925;28;20029;-75
2023/07/18 05:26:03;;;;;;;4.22;1.85;;;;;;;;;;5028464;28;20037;-76
2023/07/18 05:28:49;;;;;;;4.03;1.80;;;;;;;;;;5028432;28;20156;-75
2023/07/18 05:31:34;;;;;;;5.05;2.00;;;;;;;;;;5027932;28;20616;-75
2023/07/18 05:34:22;;;;;;;4.50;1.80;;;;;;;;;;5016496;28;20017;-71
2023/07/18 05:37:07;;;;;;;4.53;1.98;;;;;;;;;;5027454;28;20037;-65
2023/07/18 05:39:52;;;;;;;6.10;2.08;;;;;;;;;;5027718;28;20068;-68
2023/07/18 05:42:38;;;;;;;5.95;2.00;;;;;;;;;;5029865;28;20563;-66
2023/07/18 05:45:23;;;;;;;6.93;2.45;;;;;;;;;;5027870;28;20107;-65
2023/07/18 05:48:08;;;;;;;6.53;2.40;;;;;;;;;;5027848;28;20440;-68
2023/07/18 05:50:55;;;;;;;4.90;2.17;;;;;;;;;;5027664;28;20036;-68
2023/07/18 05:53:40;;;;;;;4.80;1.95;;;;;;;;;;5026169;28;20065;-68
2023/07/18 05:56:26;;;;;;;5.10;2.00;;;;;;;;;;5011649;28;20217;-73
2023/07/18 05:59:11;;;;;;;3.72;1.70;;;;;;;;;;5027991;28;20041;-74
2023/07/18 06:01:56;;;;;;;5.05;2.17;;;;;;;;;;5027869;28;20416;-74
2023/07/18 06:04:41;;;;;;;5.53;2.85;;;;;;;;;;5028351;28;20021;-73
2023/07/18 06:07:27;;;;;;;5.90;2.20;;;;;;;;;;5021713;28;20032;-71
2023/07/18 06:10:12;;;;;;;3.95;2.08;;;;;;;;;;5025846;28;20466;-69
2023/07/18 06:12:57;;;;;;;4.57;2.05;;;;;;;;;;5026981;28;20025;-69
2023/07/18 06:15:42;;;;;;;6.43;2.05;;;;;;;;;;5027378;28;20070;-67
2023/07/18 06:18:28;;;;;;;5.43;2.25;;;;;;;;;;5030160;28;20028;-65
2023/07/18 06:21:15;;;;;;;4.57;2.45;;;;;;;;;;5032923;28;20029;-66
2023/07/18 06:24:00;;;;;;;10.18;2.42;;;;;;;;;;5041411;28;20040;-67
2023/07/18 06:26:49;;;;;;;6.20;2.38;;;;;;;;;;5023875;28;20488;-65
2023/07/18 06:29:34;;;;;;;7.50;2.20;;;;;;;;;;5027176;28;20056;-66
2023/07/18 06:32:19;;;;;;;4.15;1.90;;;;;;;;;;5025930;28;20083;-65
2023/07/18 06:35:05;;;;;;;4.60;2.15;;;;;;;;;;5022759;28;20505;-65
2023/07/18 06:37:50;;;;;;;7.75;2.67;;;;;;;;;;5025607;28;20033;-68
2023/07/18 06:40:35;;;;;;;5.55;2.22;;;;;;;;;;5026305;28;20029;-64
2023/07/18 06:43:21;;;;;;;6.30;2.30;;;;;;;;;;5028404;28;20048;-66
2023/07/18 06:46:07;;;;;;;6.97;2.60;;;;;;;;;;5020091;28;20037;-66
2023/07/18 06:48:52;;;;;;;10.80;2.92;;;;;;;;;;5025969;28;20032;-68
2023/07/18 06:51:38;;;;;;;5.90;2.88;;;;;;;;;;5025711;28;20140;-68
2023/07/18 06:54:23;;;;;;;6.70;2.50;;;;;;;;;;5026028;28;20057;-68
2023/07/18 06:57:10;;;;;;;7.00;2.67;;;;;;;;;;5025811;28;20499;-68
2023/07/18 06:59:55;;;;;;;7.47;3.30;;;;;;;;;;5022538;28;20041;-71
2023/07/18 07:02:41;;;;;;;5.97;2.65;;;;;;;;;;5024627;28;20499;-68
2023/07/18 07:05:26;;;;;;;6.35;2.70;;;;;;;;;;5028766;28;20040;-72
2023/07/18 07:08:12;;;;;;;6.38;2.80;;;;;;;;;;5029157;28;20302;-69
2023/07/18 07:11:04;;;;;;;6.53;3.03;;;;;;;;;;5030019;28;20400;-70
2023/07/18 07:13:49;;;;;;;5.95;2.58;;;;;;;;;;5028544;28;20022;-73
2023/07/18 07:16:35;;;;;;;7.65;2.53;;;;;;;;;;5024864;28;20036;-72
2023/07/18 07:19:20;;;;;;;4.78;2.47;;;;;;;;;;5029279;28;20046;-72
2023/07/18 07:22:05;;;;;;;9.02;2.72;;;;;;;;;;5028833;28;20022;-72
2023/07/18 07:24:50;;;;;;;5.65;2.80;;;;;;;;;;5027507;28;20109;-72
2023/07/18 07:27:36;;;;;;;7.60;2.80;;;;;;;;;;5028625;28;20103;-73
2023/07/18 07:30:21;;;;;;;5.03;2.88;;;;;;;;;;5033054;28;20033;-68
2023/07/18 07:33:07;;;;;;;4.30;2.53;;;;;;;;;;5026734;28;20108;-70
2023/07/18 07:35:52;;;;;;;10.43;3.00;;;;;;;;;;5029627;28;20378;-70
2023/07/18 07:38:37;;;;;;;6.18;2.58;;;;;;;;;;5028786;28;20056;-70
2023/07/18 07:41:24;;;;;;;6.70;3.30;;;;;;;;;;5029087;28;20036;-69
2023/07/18 07:44:10;;;;;;;3.78;2.20;;;;;;;;;;5026827;28;20049;-69
2023/07/18 07:46:56;;;;;;;5.90;2.70;;;;;;;;;;5028973;28;20500;-69
2023/07/18 07:49:41;;;;;;;5.13;2.28;;;;;;;;;;5013278;28;20033;-73
2023/07/18 07:52:27;;;;;;;4.20;2.78;;;;;;;;;;5028312;28;20057;-70
2023/07/18 07:55:12;;;;;;;5.00;2.13;;;;;;;;;;5027125;28;20029;-69
2023/07/18 07:57:57;;;;;;;6.50;2.47;;;;;;;;;;5028282;28;20026;-69
2023/07/18 08:00:43;;;;;;;6.97;2.30;;;;;;;;;;5028636;28;20509;-69
2023/07/18 08:03:28;;;;;;;7.80;2.75;;;;;;;;;;5027243;28;20033;-75
2023/07/18 08:06:13;;;;;;;3.33;2.28;;;;;;;;;;5036309;28;20937;-72
2023/07/18 08:08:59;;;;;;;4.63;2.30;;;;;;;;;;5029089;28;20052;-71
2023/07/18 08:11:44;;;;;;;5.88;2.85;;;;;;;;;;5026438;28;20033;-73
2023/07/18 08:14:30;;;;;;;4.13;2.38;;;;;;;;;;5024554;28;20021;-73
2023/07/18 08:17:16;;;;;;;6.00;2.38;;;;;;;;;;5023472;28;20032;-75
2023/07/18 08:20:01;;;;;;;9.57;2.92;;;;;;;;;;5027353;28;20041;-69
2023/07/18 08:22:47;;;;;;;6.72;2.47;;;;;;;;;;5020738;28;20113;-72
2023/07/18 08:25:32;;;;;;;5.88;2.63;;;;;;;;;;5026595;28;20034;-72
2023/07/18 08:28:17;;;;;;;4.55;2.60;;;;;;;;;;5034769;28;20377;-71
2023/07/18 08:31:03;;;;;;;6.38;2.20;;;;;;;;;;5028679;28;20384;-70
2023/07/18 08:33:48;;;;;;;6.18;2.08;;;;;;;;;;5028199;28;20104;-72
2023/07/18 08:36:36;;;;;;;5.05;2.10;;;;;;;;;;5027726;28;20078;-72
2023/07/18 08:39:22;;;;;;;5.55;2.17;;;;;;;;;;5022887;28;20021;-75
2023/07/18 08:42:08;;;;;;;7.28;2.85;;;;;;;;;;5027956;28;20051;-68
2023/07/18 08:44:53;;;;;;;3.88;1.92;;;;;;;;;;5027898;28;20075;-68
2023/07/18 08:47:39;;;;;;;6.50;2.10;;;;;;;;;;5027798;28;20064;-72
2023/07/18 08:50:26;;;;;;;3.80;2.10;;;;;;;;;;5024847;28;20021;-68
2023/07/18 08:53:11;;;;;;;2.90;1.70;;;;;;;;;;5039353;28;20029;-69
2023/07/18 08:55:57;;;;;;;5.15;2.17;;;;;;;;;;5025995;28;20101;-68
2023/07/18 08:58:42;;;;;;;11.05;3.15;;;;;;;;;;5025592;28;20032;-71
2023/07/18 09:01:28;;;;;;;3.80;2.40;;;;;;;;;;5008127;28;20029;-76
2023/07/18 09:04:13;;;;;;;5.15;2.42;;;;;;;;;;5027757;28;20037;-76
2023/07/18 09:07:00;;;;;;;5.40;2.03;;;;;;;;;;5027750;28;20032;-73
2023/07/18 09:09:48;;;;;;;6.50;2.08;;;;;;;;;;5027729;28;20049;-73
2023/07/18 09:12:34;;;;;;;6.77;2.30;;;;;;;;;;5025110;28;20669;-72
2023/07/18 09:15:20;;;;;;;5.90;2.28;;;;;;;;;;5027369;28;20029;-68
2023/07/18 09:18:06;;;;;;;4.40;2.15;;;;;;;;;;5028264;28;20036;-67
2023/07/18 09:20:54;;;;;;;3.97;2.05;;;;;;;;;;5013335;28;20052;-67
2023/07/18 09:23:41;;;;;;;5.72;2.03;;;;;;;;;;5024934;28;20466;-66
2023/07/18 09:26:26;;;;;;;4.53;2.40;;;;;;;;;;5027227;28;20025;-67
2023/07/18 09:29:11;;;;;;;3.50;1.92;;;;;;;;;;5026779;28;20484;-67
2023/07/18 09:31:57;;;;;;;6.35;2.35;;;;;;;;;;5026763;28;20032;-69
2023/07/18 09:34:50;;;;;;;5.97;2.25;;;;;;;;;;5038418;28;20033;-68
2023/07/18 09:37:43;;;;;;;4.10;2.22;;;;;;;;;;5025084;28;20167;-69
2023/07/18 09:40:28;;;;;;;3.13;1.58;;;;;;;;;;5026778;28;20625;-67
2023/07/18 09:43:15;;;;;;;7.40;3.47;;;;;;;;;;5009163;28;20049;-68
2023/07/18 09:46:01;;;;;;;5.32;2.13;;;;;;;;;;5027474;28;20036;-68
2023/07/18 09:48:46;;;;;;;4.18;2.13;;;;;;;;;;5026738;28;20465;-69
2023/07/18 09:51:33;;;;;;;4.20;1.90;;;;;;;;;;5013029;28;20508;-69
2023/07/18 09:54:20;;;;;;;6.35;2.33;;;;;;;;;;5026170;28;20037;-78
2023/07/18 09:57:08;;;;;;;4.80;2.50;;;;;;;;;;5030205;28;20066;-75
2023/07/18 09:59:54;;;;;;;5.77;2.47;;;;;;;;;;5031023;28;20029;-73
2023/07/18 10:02:40;;;;;;;6.47;2.17;;;;;;;;;;5026171;28;20069;-73
2023/07/18 10:05:26;;;;;;;6.28;2.30;;;;;;;;;;5016231;28;20025;-74
2023/07/18 10:08:11;;;;;;;5.60;2.40;;;;;;;;;;5025427;28;20112;-73
2023/07/18 10:11:04;;;;;;;7.35;2.58;;;;;;;;;;5039543;28;20124;-74
2023/07/18 10:13:55;;;;;;;5.50;2.50;;;;;;;;;;5020400;28;20095;-65
2023/07/18 10:16:41;;;;;;;5.00;2.45;;;;;;;;;;5024896;28;20029;-65
2023/07/18 10:19:26;;;;;;;7.22;2.72;;;;;;;;;;5026950;28;20497;-67
2023/07/18 10:22:12;;;;;;;6.10;2.28;;;;;;;;;;5003915;28;20552;-68
2023/07/18 10:24:58;;;;;;;5.07;2.33;;;;;;;;;;5025736;28;20020;-69
2023/07/18 10:27:44;;;;;;;3.40;2.20;;;;;;;;;;5027055;28;20021;-67
2023/07/18 10:30:42;;;;;;;5.00;2.40;;;;;;;;;;5032865;28;20111;-66
2023/07/18 10:33:29;;;;;;;7.22;2.65;;;;;;;;;;5026515;28;20354;-67
2023/07/18 10:36:24;;;;;;;6.95;2.65;;;;;;;;;;5029771;28;20037;-66
2023/07/18 10:39:15;;;;;;;5.30;2.83;;;;;;;;;;5030271;28;20194;-66
2023/07/18 10:42:06;;;;;;;5.50;2.30;;;;;;;;;;5025843;28;20041;-68
2023/07/18 10:44:53;;;;;;;3.53;2.40;;;;;;;;;;5030884;28;20033;-68
2023/07/18 10:47:38;;;;;;;7.45;3.33;;;;;;;;;;5030011;28;20033;-68
2023/07/18 10:50:24;;;;;;;4.95;2.70;;;;;;;;;;5025634;28;20029;-75
2023/07/18 10:53:12;;;;;;;5.32;2.42;;;;;;;;;;5030406;28;20041;-73
2023/07/18 10:55:57;;;;;;;4.65;2.17;;;;;;;;;;5039260;28;20610;-73
2023/07/18 10:58:43;;;;;;;4.05;2.72;;;;;;;;;;5028398;28;20033;-74
2023/07/18 11:01:28;;;;;;;8.10;2.95;;;;;;;;;;5026881;28;20037;-75
2023/07/18 11:04:13;;;;;;;5.03;2.92;;;;;;;;;;5029785;28;20064;-69
2023/07/18 11:06:59;;;;;;;5.55;2.53;;;;;;;;;;5030565;28;20029;-75
2023/07/18 11:09:44;;;;;;;6.68;2.83;;;;;;;;;;5028863;28;20396;-74
2023/07/18 11:12:29;;;;;;;8.65;3.72;;;;;;;;;;5026900;28;20044;-72
2023/07/18 11:15:15;;;;;;;5.25;2.72;;;;;;;;;;5027378;28;20099;-70
2023/07/18 11:18:01;;;;;;;5.60;2.35;;;;;;;;;;5036211;28;20068;-68
2023/07/18 11:20:46;;;;;;;5.30;2.90;;;;;;;;;;5014772;28;20040;-70
2023/07/18 11:23:32;;;;;;;5.75;2.28;;;;;;;;;;5027852;28;20026;-74
2023/07/18 11:26:18;;;;;;;4.63;2.33;;;;;;;;;;5028531;28;20047;-71
2023/07/18 11:29:04;;;;;;;8.70;2.67;;;;;;;;;;5029007;28;20163;-70
2023/07/18 11:31:51;;;;;;;7.93;2.67;;;;;;;;;;5025692;28;20030;-71
2023/07/18 11:34:36;;;;;;;7.88;3.67;;;;;;;;;;5028696;28;20029;-72
2023/07/18 11:37:22;;;;;;;6.38;2.70;;;;;;;;;;5028377;28;20317;-72
2023/07/18 11:40:07;;;;;;;6.93;2.72;;;;;;;;;;5025864;28;20124;-69
2023/07/18 11:42:55;;;;;;;4.05;2.80;;;;;;;;;;5028121;28;20033;-72
2023/07/18 11:45:41;;;;;;;7.03;3.53;;;;;;;;;;5028937;28;20086;-68
2023/07/18 11:48:27;;;;;;;5.55;2.53;;;;;;;;;;5024243;28;20072;-70
2023/07/18 11:51:13;;;;;;;5.32;3.05;;;;;;;;;;5025313;28;20030;-71
2023/07/18 11:54:02;;;;;;;7.60;2.90;;;;;;;;;;5023920;28;20108;-73
2023/07/18 11:56:47;;;;;;;7.38;3.00;;;;;;;;;;5021985;28;20500;-72
2023/07/18 11:59:33;;;;;;;5.65;3.25;;;;;;;;;;5028519;28;20033;-78
2023/07/18 12:02:19;;;;;;;5.05;2.58;;;;;;;;;;5026780;28;20022;-69
2023/07/18 12:05:05;;;;;;;5.90;2.80;;;;;;;;;;5021289;28;20487;-67
2023/07/18 12:07:50;;;;;;;5.03;2.78;;;;;;;;;;5027124;28;20596;-68
2023/07/18 12:10:35;;;;;;;6.47;3.10;;;;;;;;;;5027763;28;20102;-70
2023/07/18 12:13:21;;;;;;;4.25;2.75;;;;;;;;;;5022125;28;20041;-70
2023/07/18 12:16:06;;;;;;;7.93;2.65;;;;;;;;;;5025423;28;20503;-71
2023/07/18 12:18:51;;;;;;;4.82;3.00;;;;;;;;;;5027473;28;20041;-69
2023/07/18 12:21:36;;;;;;;5.32;2.83;;;;;;;;;;5028727;28;20018;-83
2023/07/18 12:24:22;;;;;;;6.93;2.70;;;;;;;;;;5025522;28;20025;-85
2023/07/18 12:27:07;;;;;;;4.50;2.63;;;;;;;;;;5020420;28;20400;-75
2023/07/18 12:29:52;;;;;;;6.80;3.08;;;;;;;;;;5026718;28;20214;-79
2023/07/18 12:32:37;;;;;;;7.50;2.88;;;;;;;;;;5016830;28;20032;-79
2023/07/18 12:35:23;;;;;;;8.02;3.28;;;;;;;;;;5026354;28;20432;-83
2023/07/18 12:38:09;;;;;;;6.03;2.53;;;;;;;;;;5027008;28;20522;-68
2023/07/18 12:40:54;;;;;;;5.20;3.00;;;;;;;;;;5028179;28;20040;-70
2023/07/18 12:43:39;;;;;;;6.55;3.58;;;;;;;;;;5026958;28;20041;-67
2023/07/18 12:46:26;;;;;;;6.28;3.20;;;;;;;;;;5028006;28;20034;-68
2023/07/18 12:49:12;;;;;;;6.72;3.17;;;;;;;;;;5028114;28;20036;-70
2023/07/18 12:51:57;;;;;;;7.32;3.38;;;;;;;;;;5024713;28;20029;-74
2023/07/18 12:54:43;;;;;;;10.00;3.40;;;;;;;;;;5021676;28;20079;-69
2023/07/18 12:57:28;;;;;;;5.15;2.80;;;;;;;;;;5026968;28;20030;-69
2023/07/18 13:00:14;;;;;;;6.13;2.83;;;;;;;;;;5028670;28;20033;-72
2023/07/18 13:02:59;;;;;;;5.57;2.85;;;;;;;;;;5028025;28;20029;-70
2023/07/18 13:05:44;;;;;;;5.60;3.13;;;;;;;;;;5025802;28;20029;-74
2023/07/18 13:08:30;;;;;;;9.05;3.47;;;;;;;;;;5027152;28;20029;-73
2023/07/18 13:11:15;;;;;;;5.97;3.70;;;;;;;;;;5026975;28;20114;-70
2023/07/18 13:14:00;;;;;;;7.03;3.08;;;;;;;;;;5014117;28;20480;-83
2023/07/18 13:16:45;;;;;;;4.07;2.72;;;;;;;;;;5025292;28;20044;-81
2023/07/18 13:19:31;;;;;;;5.55;3.13;;;;;;;;;;5028319;28;20022;-76
2023/07/18 13:22:16;;;;;;;7.28;4.28;;;;;;;;;;5021914;28;20395;-84
2023/07/18 13:25:03;;;;;;;7.07;2.92;;;;;;;;;;5026701;28;20021;-83
2023/07/18 13:27:49;;;;;;;5.45;3.33;;;;;;;;;;5024879;28;20025;-74
2023/07/18 13:30:34;;;;;;;4.78;2.97;;;;;;;;;;5033450;28;20025;-77
2023/07/18 13:33:20;;;;;;;5.07;2.83;;;;;;;;;;5030242;28;20040;-68
2023/07/18 13:36:05;;;;;;;9.10;3.20;;;;;;;;;;5021749;28;20485;-70
2023/07/18 13:38:50;;;;;;;6.15;3.08;;;;;;;;;;5023053;28;20037;-70
2023/07/18 13:41:36;;;;;;;5.30;2.60;;;;;;;;;;5011362;28;20037;-75
2023/07/18 13:44:21;;;;;;;6.43;2.80;;;;;;;;;;5024558;28;20419;-69
2023/07/18 13:47:06;;;;;;;5.63;3.30;;;;;;;;;;5027335;28;20024;-70
2023/07/18 13:49:52;;;;;;;4.20;2.65;;;;;;;;;;5027141;28;20033;-72
2023/07/18 13:52:37;;;;;;;5.22;3.05;;;;;;;;;;5026085;28;20390;-83
2023/07/18 13:55:22;;;;;;;6.15;3.25;;;;;;;;;;5024982;28;20033;-67
2023/07/18 13:58:08;;;;;;;7.05;3.17;;;;;;;;;;5025887;28;20029;-67
2023/07/18 14:00:54;;;;;;;5.47;3.08;;;;;;;;;;5037376;28;20156;-69
2023/07/18 14:03:39;;;;;;;5.15;3.13;;;;;;;;;;5020965;28;20036;-66
2023/07/18 14:06:24;;;;;;;5.28;2.97;;;;;;;;;;5026792;28;20057;-69
2023/07/18 14:09:09;;;;;;;9.00;3.17;;;;;;;;;;5027267;28;20048;-73
2023/07/18 14:11:54;;;;;;;3.55;2.45;;;;;;;;;;5030175;28;20025;-68
2023/07/18 14:14:40;;;;;;;6.15;3.10;;;;;;;;;;5030344;28;20068;-68
2023/07/18 14:17:25;;;;;;;8.10;3.35;;;;;;;;;;5024325;28;20111;-69
2023/07/18 14:20:12;;;;;;;4.88;2.95;;;;;;;;;;5030839;28;20037;-69
2023/07/18 14:22:57;;;;;;;6.22;3.08;;;;;;;;;;5027761;28;20115;-69
2023/07/18 14:25:42;;;;;;;7.38;3.63;;;;;;;;;;5028303;28;20071;-68
2023/07/18 14:28:27;;;;;;;3.85;2.53;;;;;;;;;;5030570;28;20025;-69
2023/07/18 14:31:13;;;;;;;4.80;2.42;;;;;;;;;;5030391;28;20029;-74
2023/07/18 14:33:58;;;;;;;5.28;2.92;;;;;;;;;;5034182;28;20033;-76
2023/07/18 14:36:43;;;;;;;6.60;2.75;;;;;;;;;;5030761;28;20036;-75
2023/07/18 14:39:29;;;;;;;7.15;3.80;;;;;;;;;;5011752;28;20033;-76
2023/07/18 14:42:14;;;;;;;5.93;3.13;;;;;;;;;;5030607;28;20057;-73
2023/07/18 14:44:59;;;;;;;6.93;3.00;;;;;;;;;;5030768;28;20032;-74
2023/07/18 14:47:44;;;;;;;5.10;2.83;;;;;;;;;;5021901;28;20037;-74
2023/07/18 14:50:30;;;;;;;9.00;3.97;;;;;;;;;;5009986;28;20042;-68
2023/07/18 14:53:16;;;;;;;5.70;2.92;;;;;;;;;;5028703;28;20813;-75
2023/07/18 14:56:01;;;;;;;4.78;2.60;;;;;;;;;;5033802;28;20021;-73
2023/07/18 14:58:46;;;;;;;5.90;2.83;;;;;;;;;;5025557;28;20073;-69
2023/07/18 15:01:32;;;;;;;5.82;3.20;;;;;;;;;;5028883;28;21593;-70
2023/07/18 15:04:17;;;;;;;5.93;3.08;;;;;;;;;;5030769;28;20086;-73
2023/07/18 15:07:03;;;;;;;5.72;3.03;;;;;;;;;;5030655;28;20025;-71
2023/07/18 15:09:48;;;;;;;7.65;3.08;;;;;;;;;;5032127;28;20029;-72
2023/07/18 15:12:33;;;;;;;10.55;3.47;;;;;;;;;;5030376;28;20071;-71
2023/07/18 15:15:18;;;;;;;7.75;4.07;;;;;;;;;;5022846;28;20390;-71
2023/07/18 15:18:04;;;;;;;6.60;3.20;;;;;;;;;;5014362;28;20021;-72
2023/07/18 15:20:49;;;;;;;6.57;3.47;;;;;;;;;;5013509;28;20037;-73
2023/07/18 15:23:36;;;;;;;6.05;3.30;;;;;;;;;;5025269;28;20057;-75
2023/07/18 15:26:21;;;;;;;4.75;2.90;;;;;;;;;;5029181;28;20331;-70
2023/07/18 15:29:06;;;;;;;7.00;3.17;;;;;;;;;;5029940;28;20086;-69
2023/07/18 15:31:51;;;;;;;4.93;2.65;;;;;;;;;;5027684;28;20120;-72
2023/07/18 15:34:37;;;;;;;4.57;3.00;;;;;;;;;;5027182;28;20033;-70
2023/07/18 15:37:22;;;;;;;4.65;2.72;;;;;;;;;;5033615;28;20052;-70
2023/07/18 15:40:07;;;;;;;5.65;3.05;;;;;;;;;;5029617;28;20164;-69
2023/07/18 15:42:53;;;;;;;5.75;3.03;;;;;;;;;;5032193;28;20140;-72
2023/07/18 15:45:38;;;;;;;7.47;3.30;;;;;;;;;;5024259;28;20048;-65
2023/07/18 15:48:25;;;;;;;8.35;3.53;;;;;;;;;;5028601;28;20041;-69
2023/07/18 15:51:10;;;;;;;7.68;3.55;;;;;;;;;;5023728;28;20035;-64
2023/07/18 15:53:57;;;;;;;6.22;3.55;;;;;;;;;;5015277;28;20053;-65
2023/07/18 15:56:42;;;;;;;6.63;3.30;;;;;;;;;;5004601;28;20065;-64
2023/07/18 15:59:29;;;;;;;6.50;4.15;;;;;;;;;;5029703;28;20017;-72
2023/07/18 16:02:14;;;;;;;8.07;3.83;;;;;;;;;;5029264;28;20079;-71
2023/07/18 16:04:59;;;;;;;8.80;4.38;;;;;;;;;;5023459;28;20116;-72
2023/07/18 16:07:44;;;;;;;7.40;3.55;;;;;;;;;;5032177;28;20780;-72
2023/07/18 16:10:33;;;;;;;6.70;3.42;;;;;;;;;;5024892;28;20049;-70
2023/07/18 16:13:18;;;;;;;5.17;3.47;;;;;;;;;;5025155;28;20109;-71
2023/07/18 16:16:04;;;;;;;5.88;3.17;;;;;;;;;;5024530;28;20037;-72
2023/07/18 16:18:57;;;;;;;5.68;2.58;;;;;;;;;;5028217;28;20536;-71
2023/07/18 16:21:42;;;;;;;5.78;3.40;;;;;;;;;;5025024;28;20577;-73
2023/07/18 16:24:28;;;;;;;5.60;3.30;;;;;;;;;;5027043;28;20028;-74
2023/07/18 16:27:14;;;;;;;5.82;3.53;;;;;;;;;;5025701;28;20071;-74
2023/07/18 16:29:59;;;;;;;5.10;3.33;;;;;;;;;;5026339;28;20029;-74
2023/07/18 16:32:44;;;;;;;5.50;2.80;;;;;;;;;;5017332;28;20120;-74